Time;durP1;ratioP1;P1;durP2;ratioP2;P2;SDS_P1;SDS_P2;PMS_P1;PMS_P2;Temp;Humidity;BMP_temperature;BMP_pressure;BME280_temperature;BME280_humidity;BME280_pressure;Samples;Min_cycle;Max_cycle;Signal;HPM_P1;HPM_P2
2021/12/29 00:00:30;;;;;;;55.63;28.58;;;;;;;2.40;100.00;98967.44;5046658;28;20067;-59
2021/12/29 00:03:00;;;;;;;60.80;29.05;;;;;;;2.40;100.00;98974.41;5056598;28;20091;-59
2021/12/29 00:05:28;;;;;;;61.72;29.85;;;;;;;2.40;100.00;98974.41;5046856;28;20060;-60
2021/12/29 00:07:55;;;;;;;56.85;30.25;;;;;;;2.38;100.00;98968.44;5048643;28;20135;-60
2021/12/29 00:10:23;;;;;;;55.28;29.08;;;;;;;2.41;100.00;98973.47;5048004;28;20584;-61
2021/12/29 00:12:52;;;;;;;50.20;28.90;;;;;;;2.41;100.00;98982.09;5047311;28;20072;-61
2021/12/29 00:15:24;;;;;;;54.80;28.45;;;;;;;2.41;100.00;98986.47;5043881;28;20123;-61
2021/12/29 00:17:52;;;;;;;51.45;29.05;;;;;;;2.39;100.00;98988.31;5049525;28;20049;-59
2021/12/29 00:20:24;;;;;;;61.38;29.73;;;;;;;2.39;100.00;98986.56;5040819;28;20055;-61
2021/12/29 00:22:51;;;;;;;50.55;28.27;;;;;;;2.39;100.00;98985.72;5049345;28;20068;-60
2021/12/29 00:25:18;;;;;;;54.80;29.27;;;;;;;2.38;100.00;98994.41;5042610;28;20053;-61
2021/12/29 00:27:45;;;;;;;59.20;30.17;;;;;;;2.37;100.00;99003.97;5050072;28;20107;-59
2021/12/29 00:30:13;;;;;;;56.58;29.23;;;;;;;2.36;100.00;99007.47;5028715;28;20401;-61
2021/12/29 00:32:40;;;;;;;57.55;29.85;;;;;;;2.38;100.00;99009.97;5047883;28;20144;-61
2021/12/29 00:35:11;;;;;;;57.72;30.55;;;;;;;2.44;100.00;99020.91;5035035;28;20143;-61
2021/12/29 00:37:38;;;;;;;54.80;28.95;;;;;;;2.47;100.00;99015.53;5047380;28;20053;-59
2021/12/29 00:40:06;;;;;;;53.85;28.10;;;;;;;2.48;100.00;99013.81;5046055;28;20049;-61
2021/12/29 00:42:34;;;;;;;59.25;29.13;;;;;;;2.44;100.00;99014.88;5031783;28;20128;-60
2021/12/29 00:45:01;;;;;;;49.78;27.10;;;;;;;2.44;100.00;99026.09;5041006;28;20049;-58
2021/12/29 00:47:31;;;;;;;51.08;26.65;;;;;;;2.42;100.00;99027.94;5050648;28;20049;-58
2021/12/29 00:50:00;;;;;;;50.38;27.67;;;;;;;2.42;100.00;99024.50;5027225;28;20580;-60
2021/12/29 00:52:27;;;;;;;51.70;27.67;;;;;;;2.45;100.00;99038.16;5048999;28;20131;-60
2021/12/29 00:54:54;;;;;;;57.30;29.10;;;;;;;2.44;100.00;99036.50;5045610;28;20547;-60
2021/12/29 00:57:21;;;;;;;49.63;26.48;;;;;;;2.43;100.00;99032.22;5049093;28;20055;-58
2021/12/29 00:59:48;;;;;;;52.05;27.02;;;;;;;2.45;100.00;99043.38;5041932;28;20059;-60
2021/12/29 01:02:15;;;;;;;54.53;27.33;;;;;;;2.44;100.00;99038.25;5052823;28;20049;-59
2021/12/29 01:04:43;;;;;;;55.13;26.88;;;;;;;2.42;100.00;99042.69;5058030;28;20448;-58
2021/12/29 01:07:10;;;;;;;49.78;26.75;;;;;;;2.41;100.00;99041.00;5028995;28;20132;-61
2021/12/29 01:09:38;;;;;;;58.70;29.00;;;;;;;2.40;100.00;99045.34;5050868;28;20132;-59
2021/12/29 01:12:05;;;;;;;51.28;27.35;;;;;;;2.37;100.00;99045.50;5053032;28;20045;-59
2021/12/29 01:14:32;;;;;;;56.22;29.13;;;;;;;2.42;100.00;99055.66;5051549;28;20080;-60
2021/12/29 01:16:59;;;;;;;52.15;27.20;;;;;;;2.38;100.00;99054.97;5050212;28;20420;-60
2021/12/29 01:19:29;;;;;;;49.03;26.10;;;;;;;2.33;100.00;99056.13;5049737;28;20248;-59
2021/12/29 01:21:58;;;;;;;52.15;26.25;;;;;;;2.27;100.00;99057.28;5046038;28;20047;-58
2021/12/29 01:24:28;;;;;;;52.47;27.90;;;;;;;2.27;100.00;99067.66;5045557;28;20084;-59
2021/12/29 01:26:56;;;;;;;53.05;27.27;;;;;;;2.26;100.00;99071.19;5049241;28;20051;-60
2021/12/29 01:29:26;;;;;;;49.28;24.45;;;;;;;2.32;100.00;99076.06;5049252;28;20056;-59
2021/12/29 01:31:53;;;;;;;53.20;26.45;;;;;;;2.32;100.00;99076.06;5052372;28;20045;-60
2021/12/29 01:34:21;;;;;;;53.30;27.50;;;;;;;2.28;100.00;99080.56;5049968;28;20061;-60
2021/12/29 01:36:49;;;;;;;51.05;26.50;;;;;;;2.28;100.00;99077.13;5055080;28;20079;-57
2021/12/29 01:39:18;;;;;;;55.40;27.38;;;;;;;2.29;100.00;99076.22;5049468;28;20057;-58
2021/12/29 01:41:47;;;;;;;51.85;27.05;;;;;;;2.34;100.00;99078.56;5033928;28;20497;-59
2021/12/29 01:44:16;;;;;;;54.65;27.17;;;;;;;2.35;100.00;99070.72;5080693;22;20045;-64
2021/12/29 01:46:44;;;;;;;50.63;26.60;;;;;;;2.35;100.00;99073.31;5060067;28;20057;-63
2021/12/29 01:49:12;;;;;;;53.33;27.95;;;;;;;2.34;100.00;99087.19;5036918;28;20163;-64
2021/12/29 01:51:49;;;;;;;54.60;27.58;;;;;;;2.35;100.00;99091.50;5063766;28;20055;-64
2021/12/29 01:54:23;;;;;;;54.00;26.88;;;;;;;2.41;100.00;99092.94;5049924;28;20053;-63
2021/12/29 01:56:53;;;;;;;55.23;26.70;;;;;;;2.43;100.00;99093.69;5047246;28;20060;-64
2021/12/29 01:59:21;;;;;;;52.58;27.17;;;;;;;2.40;100.00;99105.09;5052932;28;20433;-60
2021/12/29 02:01:49;;;;;;;56.03;28.83;;;;;;;2.46;100.00;99101.34;5058471;28;20124;-61
2021/12/29 02:04:17;;;;;;;50.17;27.77;;;;;;;2.47;100.00;99092.63;5051374;28;20053;-61
2021/12/29 02:06:44;;;;;;;53.53;25.20;;;;;;;2.45;100.00;99090.13;5066730;28;20048;-62
2021/12/29 02:09:12;;;;;;;50.03;26.73;;;;;;;2.44;100.00;99093.63;5055546;28;20070;-62
2021/12/29 02:11:42;;;;;;;47.03;26.58;;;;;;;2.45;100.00;99102.25;5059107;28;20045;-61
2021/12/29 02:14:09;;;;;;;52.50;26.63;;;;;;;2.50;100.00;99110.66;5057285;28;20131;-62
2021/12/29 02:16:37;;;;;;;48.60;27.17;;;;;;;2.46;100.00;99120.34;5038638;28;20054;-62
2021/12/29 02:19:10;;;;;;;45.60;24.55;;;;;;;2.47;100.00;99124.63;5061048;28;20048;-62
2021/12/29 02:21:38;;;;;;;43.58;25.33;;;;;;;2.51;100.00;99120.97;5060992;28;20036;-62
2021/12/29 02:26:38;;;;;;;45.70;25.30;;;;;;;2.54;100.00;99126.03;5043379;28;20048;-62
2021/12/29 02:29:11;;;;;;;41.22;24.77;;;;;;;2.57;100.00;99130.22;5061464;28;20057;-62
2021/12/29 02:31:39;;;;;;;45.47;24.27;;;;;;;2.61;100.00;99128.28;5057571;28;20558;-62
2021/12/29 02:34:08;;;;;;;44.72;24.85;;;;;;;2.62;100.00;99127.41;5038219;28;20145;-62
2021/12/29 02:36:43;;;;;;;42.03;23.08;;;;;;;2.67;100.00;99135.81;5053306;28;20136;-58
2021/12/29 02:39:19;;;;;;;47.35;25.23;;;;;;;2.66;100.00;99134.97;5064187;28;20139;-62
2021/12/29 02:41:52;;;;;;;42.90;23.70;;;;;;;2.70;100.00;99135.63;5059634;28;20072;-62
2021/12/29 02:44:25;;;;;;;42.97;23.33;;;;;;;2.66;100.00;99142.75;5063986;28;20135;-62
2021/12/29 02:46:53;;;;;;;43.08;23.23;;;;;;;2.71;100.00;99151.16;5053244;28;20052;-62
2021/12/29 02:49:21;;;;;;;41.05;23.10;;;;;;;2.75;100.00;99150.09;5050405;28;20084;-63
2021/12/29 02:51:49;;;;;;;36.00;22.10;;;;;;;2.77;100.00;99145.66;5062778;28;20055;-62
2021/12/29 02:54:17;;;;;;;34.47;22.10;;;;;;;2.80;100.00;99149.84;5047027;28;20282;-60
2021/12/29 02:56:47;;;;;;;38.60;23.00;;;;;;;2.81;100.00;99150.69;5060537;28;20052;-60
2021/12/29 02:59:15;;;;;;;37.50;22.02;;;;;;;2.84;100.00;99158.31;5065650;28;20765;-61
2021/12/29 03:01:43;;;;;;;35.17;22.40;;;;;;;2.85;100.00;99155.66;5057712;28;20339;-62
2021/12/29 03:04:11;;;;;;;35.60;20.23;;;;;;;2.89;100.00;99159.78;5061559;28;20063;-62
2021/12/29 03:06:39;;;;;;;39.25;21.88;;;;;;;2.91;100.00;99163.13;5047355;28;20140;-61
2021/12/29 03:09:08;;;;;;;35.55;21.05;;;;;;;2.92;100.00;99170.00;5053089;28;20056;-62
2021/12/29 03:11:36;;;;;;;37.42;19.65;;;;;;;2.95;100.00;99164.66;5064898;28;20091;-62
2021/12/29 03:14:04;;;;;;;33.38;19.50;;;;;;;2.95;100.00;99162.06;5054072;28;20048;-61
2021/12/29 03:16:33;;;;;;;36.53;20.52;;;;;;;2.99;100.00;99166.19;5045408;28;20063;-62
2021/12/29 03:19:02;;;;;;;37.35;21.05;;;;;;;3.04;100.00;99166.78;5055214;28;20173;-62
2021/12/29 03:21:33;;;;;;;34.45;20.75;;;;;;;3.09;100.00;99169.16;5057260;28;20057;-61
2021/12/29 03:24:01;;;;;;;32.05;20.13;;;;;;;3.11;100.00;99175.13;5056863;28;20114;-62
2021/12/29 03:26:30;;;;;;;30.92;19.02;;;;;;;3.17;100.00;99173.97;5053575;28;20393;-61
2021/12/29 03:28:57;;;;;;;33.38;20.60;;;;;;;3.20;100.00;99179.03;5067296;28;20057;-61
2021/12/29 03:31:26;;;;;;;29.88;18.35;;;;;;;3.26;100.00;99182.13;5052768;28;20059;-62
2021/12/29 03:33:56;;;;;;;32.58;18.65;;;;;;;3.28;100.00;99182.03;5061518;28;20053;-62
2021/12/29 03:36:24;;;;;;;32.17;18.95;;;;;;;3.28;100.00;99187.25;5053210;28;20052;-62
2021/12/29 03:38:51;;;;;;;28.00;18.13;;;;;;;3.33;100.00;99181.78;5047122;28;20053;-62
2021/12/29 03:41:19;;;;;;;26.58;17.27;;;;;;;3.34;100.00;99180.91;5048364;28;20052;-62
2021/12/29 03:43:46;;;;;;;29.42;16.75;;;;;;;3.37;100.00;99193.72;5062510;28;20062;-62
2021/12/29 03:46:14;;;;;;;24.73;16.85;;;;;;;3.39;100.00;99187.53;5053997;28;20052;-62
2021/12/29 03:48:43;;;;;;;28.40;16.52;;;;;;;3.45;100.00;99192.41;5055405;28;20072;-62
2021/12/29 03:51:11;;;;;;;24.63;15.93;;;;;;;3.46;100.00;99188.03;5047107;28;20133;-62
2021/12/29 03:53:38;;;;;;;30.30;16.98;;;;;;;3.44;100.00;99188.13;5037060;28;20131;-63
2021/12/29 03:56:06;;;;;;;30.63;16.70;;;;;;;3.39;100.00;99194.50;5057314;28;20052;-63
2021/12/29 03:58:33;;;;;;;26.77;15.85;;;;;;;3.33;100.00;99185.22;5067255;28;20338;-63
2021/12/29 04:01:05;;;;;;;28.63;15.93;;;;;;;3.27;100.00;99190.75;5049291;28;20076;-63
2021/12/29 04:03:32;;;;;;;35.55;17.65;;;;;;;3.20;100.00;99190.25;5060475;28;20083;-62
2021/12/29 04:05:59;;;;;;;24.70;15.13;;;;;;;3.12;100.00;99187.22;5061532;28;20048;-63
2021/12/29 04:08:27;;;;;;;34.60;16.80;;;;;;;3.14;100.00;99192.31;5058136;28;20175;-63
2021/12/29 04:10:54;;;;;;;27.48;15.88;;;;;;;3.19;100.00;99201.56;5045205;28;20055;-63
2021/12/29 04:13:21;;;;;;;31.85;17.30;;;;;;;3.17;100.00;99207.78;5051886;28;20133;-61
2021/12/29 04:15:48;;;;;;;27.55;17.58;;;;;;;3.13;100.00;99212.28;5058108;28;20546;-64
2021/12/29 04:18:25;;;;;;;28.13;16.70;;;;;;;3.10;100.00;99225.44;5055737;28;20252;-64
2021/12/29 04:20:57;;;;;;;26.30;15.43;;;;;;;3.09;100.00;99225.50;5055343;28;20044;-61
2021/12/29 04:23:30;;;;;;;29.92;17.00;;;;;;;3.12;100.00;99234.00;5057105;28;20296;-62
2021/12/29 04:26:00;;;;;;;29.85;17.83;;;;;;;3.17;100.00;99244.19;5050126;28;20127;-62
2021/12/29 04:28:28;;;;;;;28.90;17.50;;;;;;;3.23;100.00;99239.50;5061264;28;20056;-61
2021/12/29 04:31:00;;;;;;;30.38;17.02;;;;;;;3.28;100.00;99239.25;5052360;28;20041;-62
2021/12/29 04:33:28;;;;;;;31.30;17.38;;;;;;;3.31;100.00;99246.91;5044915;28;20129;-62
2021/12/29 04:35:56;;;;;;;28.30;16.08;;;;;;;3.36;100.00;99251.88;5047990;28;20049;-62
2021/12/29 04:38:24;;;;;;;30.13;16.88;;;;;;;3.37;100.00;99267.41;5036178;28;20678;-61
2021/12/29 04:40:54;;;;;;;26.58;17.05;;;;;;;3.39;100.00;99272.53;5042980;28;20056;-61
2021/12/29 04:43:23;;;;;;;26.92;16.85;;;;;;;3.42;100.00;99267.16;5042083;28;20533;-61
2021/12/29 04:45:51;;;;;;;29.25;16.67;;;;;;;3.44;100.00;99273.13;5047361;28;20160;-62
2021/12/29 04:48:19;;;;;;;29.60;16.10;;;;;;;3.44;100.00;99273.13;5061148;28;20411;-62
2021/12/29 04:50:52;;;;;;;29.02;17.08;;;;;;;3.48;100.00;99278.09;5051415;28;20440;-62
2021/12/29 04:53:23;;;;;;;28.13;16.23;;;;;;;3.49;100.00;99271.97;5064417;28;20052;-62
2021/12/29 04:55:51;;;;;;;29.08;15.20;;;;;;;3.52;100.00;99282.25;5059002;28;20063;-62
2021/12/29 04:58:20;;;;;;;33.15;17.85;;;;;;;3.52;100.00;99282.25;5058686;28;20063;-62
2021/12/29 05:00:49;;;;;;;30.52;16.00;;;;;;;3.55;100.00;99284.66;5058808;28;20132;-62
2021/12/29 05:03:16;;;;;;;36.92;17.75;;;;;;;3.60;100.00;99284.41;5048488;28;20055;-62
2021/12/29 05:05:56;;;;;;;33.75;17.65;;;;;;;3.62;100.00;99285.19;5052497;28;20055;-62
2021/12/29 05:08:27;;;;;;;30.92;15.20;;;;;;;3.64;100.00;99296.34;5057199;28;20082;-62
2021/12/29 05:11:00;;;;;;;29.27;17.13;;;;;;;3.65;100.00;99297.19;5058429;28;20049;-62
2021/12/29 05:13:29;;;;;;;24.88;14.60;;;;;;;3.62;100.00;99307.78;5050412;28;20063;-62
2021/12/29 05:15:57;;;;;;;28.42;15.57;;;;;;;3.63;100.00;99301.66;5057196;28;20083;-62
2021/12/29 05:18:30;;;;;;;29.00;14.10;;;;;;;3.65;100.00;99310.22;5057333;28;20064;-62
2021/12/29 05:20:57;;;;;;;25.60;15.05;;;;;;;3.66;100.00;99315.34;5056015;28;20041;-62
2021/12/29 05:23:25;;;;;;;22.33;14.40;;;;;;;3.67;100.00;99318.78;5062008;28;20541;-62
2021/12/29 05:25:53;;;;;;;24.45;15.23;;;;;;;3.63;100.00;99309.47;5053329;28;20076;-62
2021/12/29 05:28:23;;;;;;;25.75;14.35;;;;;;;3.61;100.00;99316.53;5058983;28;20063;-62
2021/12/29 05:30:51;;;;;;;23.58;13.75;;;;;;;3.62;100.00;99318.19;5052495;28;20316;-62
2021/12/29 05:33:18;;;;;;;26.05;15.52;;;;;;;3.61;100.00;99319.13;5061961;28;20131;-62
2021/12/29 05:35:45;;;;;;;25.65;14.02;;;;;;;3.64;100.00;99327.59;5056948;28;20044;-61
2021/12/29 05:38:12;;;;;;;24.75;14.50;;;;;;;3.64;100.00;99337.16;5061568;28;20135;-62
2021/12/29 05:40:39;;;;;;;22.00;14.18;;;;;;;3.68;100.00;99341.28;5051938;28;20135;-62
2021/12/29 05:43:06;;;;;;;23.20;13.98;;;;;;;3.72;100.00;99337.63;5053036;28;20132;-63
2021/12/29 05:45:33;;;;;;;24.67;14.50;;;;;;;3.71;100.00;99343.75;5047538;28;20066;-62
2021/12/29 05:48:01;;;;;;;29.48;15.70;;;;;;;3.77;100.00;99352.06;5062971;28;20135;-62
2021/12/29 05:50:30;;;;;;;23.83;14.23;;;;;;;3.69;100.00;99356.84;5061185;28;20060;-62
2021/12/29 05:52:57;;;;;;;30.50;16.45;;;;;;;3.72;100.00;99359.28;5058474;28;20099;-62
2021/12/29 05:55:25;;;;;;;33.28;16.05;;;;;;;3.69;100.00;99367.25;5041575;28;20059;-62
2021/12/29 05:57:52;;;;;;;24.05;15.80;;;;;;;3.75;100.00;99364.34;5058969;28;20058;-62
2021/12/29 06:00:21;;;;;;;28.60;16.52;;;;;;;3.77;100.00;99361.63;5029975;28;20144;-62
2021/12/29 06:02:49;;;;;;;30.50;16.30;;;;;;;3.77;100.00;99366.84;5047496;28;20358;-62
2021/12/29 06:05:17;;;;;;;26.55;15.25;;;;;;;3.78;100.00;99374.59;5062992;28;20102;-62
2021/12/29 06:07:44;;;;;;;34.15;16.00;;;;;;;3.86;100.00;99375.94;5052318;28;20052;-62
2021/12/29 06:10:11;;;;;;;32.45;16.52;;;;;;;3.81;100.00;99381.38;5061498;28;20056;-62
2021/12/29 06:12:41;;;;;;;26.38;15.73;;;;;;;3.80;100.00;99388.38;5034864;28;20137;-62
2021/12/29 06:15:09;;;;;;;28.35;14.93;;;;;;;3.82;100.00;99385.66;5061674;28;20041;-61
2021/12/29 06:17:37;;;;;;;28.83;15.45;;;;;;;3.81;100.00;99390.03;5060676;28;20057;-62
2021/12/29 06:20:06;;;;;;;25.25;15.38;;;;;;;3.81;100.00;99400.44;5050841;28;20053;-62
2021/12/29 06:22:33;;;;;;;26.70;15.65;;;;;;;3.82;100.00;99396.09;5060248;28;20052;-62
2021/12/29 06:25:00;;;;;;;25.35;15.52;;;;;;;3.86;100.00;99401.97;5056310;28;20136;-62
2021/12/29 06:27:27;;;;;;;31.58;13.95;;;;;;;3.89;100.00;99399.22;5060052;28;20110;-60
2021/12/29 06:29:55;;;;;;;26.95;14.07;;;;;;;3.89;100.00;99397.47;5057723;28;20053;-60
2021/12/29 06:32:22;;;;;;;29.38;14.70;;;;;;;3.92;100.00;99402.53;5067671;28;20053;-62
2021/12/29 06:34:49;;;;;;;25.73;13.98;;;;;;;3.98;100.00;99401.38;5060170;28;20053;-62
2021/12/29 06:37:16;;;;;;;29.50;14.93;;;;;;;3.97;100.00;99405.72;5055781;28;20581;-62
2021/12/29 06:39:44;;;;;;;30.35;15.02;;;;;;;3.99;100.00;99408.25;5060094;28;20497;-60
2021/12/29 06:42:13;;;;;;;32.50;13.85;;;;;;;4.00;100.00;99412.53;5065396;28;20451;-61
2021/12/29 06:44:40;;;;;;;34.70;14.00;;;;;;;4.00;100.00;99417.75;5064460;28;20056;-62
2021/12/29 06:47:07;;;;;;;26.42;13.73;;;;;;;4.01;100.00;99422.06;5057516;28;20052;-61
2021/12/29 06:49:35;;;;;;;32.63;13.43;;;;;;;4.01;100.00;99428.09;5047078;28;20056;-61
2021/12/29 06:52:04;;;;;;;29.58;15.57;;;;;;;4.03;100.00;99436.66;5062943;28;20056;-62
2021/12/29 06:54:32;;;;;;;27.48;14.00;;;;;;;4.07;100.00;99438.19;5064741;28;20079;-62
2021/12/29 06:56:59;;;;;;;32.30;14.13;;;;;;;4.07;100.00;99443.41;5060884;28;20524;-62
2021/12/29 06:59:26;;;;;;;32.13;14.43;;;;;;;4.10;100.00;99450.22;5053823;28;20144;-62
2021/12/29 07:01:53;;;;;;;29.35;12.80;;;;;;;4.11;100.00;99449.31;5063008;28;20048;-62
2021/12/29 07:04:23;;;;;;;27.60;12.55;;;;;;;4.13;100.00;99465.69;5056938;28;20049;-62
2021/12/29 07:06:51;;;;;;;35.42;13.88;;;;;;;4.16;100.00;99455.09;5055374;28;20139;-62
2021/12/29 07:09:19;;;;;;;29.80;14.73;;;;;;;4.17;100.00;99454.19;5062206;28;20543;-62
2021/12/29 07:11:46;;;;;;;27.35;14.48;;;;;;;4.17;100.00;99466.38;5061219;28;20051;-61
2021/12/29 07:14:14;;;;;;;27.63;12.30;;;;;;;4.18;100.00;99461.06;5055078;28;20144;-62
2021/12/29 07:16:44;;;;;;;32.08;13.38;;;;;;;4.16;100.00;99467.28;5054555;28;20055;-62
2021/12/29 07:19:11;;;;;;;29.98;13.05;;;;;;;4.17;100.00;99467.19;5063733;28;20118;-62
2021/12/29 07:21:38;;;;;;;25.83;12.20;;;;;;;4.14;100.00;99471.72;5056084;28;20061;-62
2021/12/29 07:24:06;;;;;;;27.65;12.98;;;;;;;4.20;100.00;99468.81;5055448;28;20056;-61
2021/12/29 07:26:34;;;;;;;28.52;12.75;;;;;;;4.21;100.00;99470.50;5057685;28;20099;-62
2021/12/29 07:29:02;;;;;;;28.02;12.52;;;;;;;4.16;100.00;99473.34;5047494;28;20070;-62
2021/12/29 07:31:29;;;;;;;27.08;12.43;;;;;;;4.14;100.00;99480.38;5050783;28;20103;-62
2021/12/29 07:34:16;;;;;;;33.65;13.80;;;;;;;4.11;100.00;99483.16;5051879;28;20059;-63
2021/12/29 07:36:44;;;;;;;34.08;14.57;;;;;;;4.12;100.00;99482.22;5055627;28;20069;-63
2021/12/29 07:39:11;;;;;;;22.98;12.93;;;;;;;4.10;100.00;99485.81;5060595;28;20062;-63
2021/12/29 07:41:40;;;;;;;26.88;13.68;;;;;;;4.09;100.00;99489.34;5062028;28;20048;-63
2021/12/29 07:44:08;;;;;;;30.60;14.82;;;;;;;4.05;100.00;99489.53;5058785;22;20057;-60
2021/12/29 07:46:36;;;;;;;38.03;14.60;;;;;;;4.06;100.00;99490.38;5033720;28;20494;-59
2021/12/29 07:49:04;;;;;;;28.92;15.00;;;;;;;4.09;100.00;99497.16;5043243;28;20131;-59
2021/12/29 07:51:32;;;;;;;25.83;13.57;;;;;;;4.13;100.00;99496.09;5044511;28;20051;-59
2021/12/29 07:53:59;;;;;;;27.35;13.55;;;;;;;4.11;100.00;99500.56;5013861;28;20129;-60
2021/12/29 07:56:27;;;;;;;29.80;13.20;;;;;;;4.11;100.00;99516.19;5012590;28;20058;-58
2021/12/29 07:58:54;;;;;;;29.80;13.82;;;;;;;4.06;100.00;99514.63;5022118;28;20060;-58
2021/12/29 08:01:22;;;;;;;23.38;13.38;;;;;;;4.06;100.00;99512.03;5018037;28;20509;-60
2021/12/29 08:03:50;;;;;;;30.75;13.98;;;;;;;4.07;100.00;99515.47;5018579;28;20059;-60
2021/12/29 08:06:18;;;;;;;34.45;14.25;;;;;;;4.03;100.00;99519.16;5009886;28;20058;-60
2021/12/29 08:08:45;;;;;;;28.73;14.23;;;;;;;4.02;100.00;99525.28;5018867;28;20581;-60
2021/12/29 08:11:12;;;;;;;37.08;15.60;;;;;;;4.00;100.00;99530.53;5017095;28;20151;-58
2021/12/29 08:13:39;;;;;;;30.38;14.73;;;;;;;4.03;100.00;99543.44;5013826;28;20168;-59
2021/12/29 08:16:07;;;;;;;37.50;15.93;;;;;;;4.07;100.00;99544.97;5008145;28;20061;-58
2021/12/29 08:18:34;;;;;;;39.30;16.75;;;;;;;4.10;100.00;99559.63;5024739;28;20139;-59
2021/12/29 08:21:01;;;;;;;36.25;15.13;;;;;;;4.13;100.00;99563.81;5012743;28;20120;-60
2021/12/29 08:23:28;;;;;;;33.75;14.88;;;;;;;4.12;100.00;99562.13;5020767;28;20132;-57
2021/12/29 08:25:55;;;;;;;32.10;15.02;;;;;;;4.16;100.00;99567.13;5013698;28;20068;-60
2021/12/29 08:28:22;;;;;;;31.33;15.52;;;;;;;4.15;100.00;99572.41;5026367;28;20061;-58
2021/12/29 08:30:51;;;;;;;31.33;13.82;;;;;;;4.15;100.00;99573.25;5017727;28;20186;-59
2021/12/29 08:33:18;;;;;;;29.70;13.88;;;;;;;4.23;100.00;99583.25;5020730;28;20131;-60
2021/12/29 08:35:46;;;;;;;35.70;14.57;;;;;;;4.14;100.00;99587.16;5019045;28;20061;-59
2021/12/29 08:38:13;;;;;;;35.08;14.68;;;;;;;4.16;100.00;99585.34;5014747;28;20155;-60
2021/12/29 08:40:41;;;;;;;28.10;14.75;;;;;;;4.22;100.00;99592.00;5020656;28;20053;-60
2021/12/29 08:43:08;;;;;;;27.23;14.10;;;;;;;4.24;100.00;99591.03;5027193;28;20129;-61
2021/12/29 08:45:36;;;;;;;29.27;14.98;;;;;;;4.26;100.00;99588.34;5015863;28;20050;-59
2021/12/29 08:48:04;;;;;;;25.92;13.63;;;;;;;4.33;100.00;99594.94;4984527;28;20141;-60
2021/12/29 08:50:32;;;;;;;30.35;14.30;;;;;;;4.39;100.00;99591.19;5023177;28;20080;-60
2021/12/29 08:53:02;;;;;;;26.35;13.90;;;;;;;4.40;100.00;99595.47;5022596;28;20429;-59
2021/12/29 08:55:31;;;;;;;27.98;13.93;;;;;;;4.44;100.00;99603.06;5021714;28;20416;-61
2021/12/29 08:57:58;;;;;;;33.72;14.68;;;;;;;4.48;100.00;99614.16;5006517;28;20468;-61
2021/12/29 09:00:27;;;;;;;28.23;14.10;;;;;;;4.54;100.00;99614.69;5021006;28;20064;-60
2021/12/29 09:02:55;;;;;;;31.00;14.25;;;;;;;4.60;100.00;99608.34;5017522;28;20050;-60
2021/12/29 09:05:22;;;;;;;34.30;14.45;;;;;;;4.53;100.00;99614.78;5018282;28;20046;-61
2021/12/29 09:07:50;;;;;;;29.48;13.85;;;;;;;4.57;100.00;99621.53;5016934;28;20060;-59
2021/12/29 09:10:18;;;;;;;30.63;15.07;;;;;;;4.58;100.00;99620.59;5020509;28;20064;-61
2021/12/29 09:12:48;;;;;;;23.77;14.02;;;;;;;4.67;100.00;99627.13;5012701;28;20064;-60
2021/12/29 09:15:15;;;;;;;27.92;14.10;;;;;;;4.72;100.00;99623.34;5007034;28;20077;-59
2021/12/29 09:17:42;;;;;;;35.17;14.52;;;;;;;4.69;100.00;99635.72;5021628;28;20539;-59
2021/12/29 09:20:15;;;;;;;31.13;13.80;;;;;;;4.73;100.00;99632.03;5018053;28;20053;-61
2021/12/29 09:22:42;;;;;;;38.97;16.02;;;;;;;4.66;100.00;99641.06;5023553;28;20577;-61
2021/12/29 09:25:10;;;;;;;25.05;13.57;;;;;;;4.74;100.00;99642.38;5015795;28;20046;-60
2021/12/29 09:27:37;;;;;;;29.17;15.43;;;;;;;4.80;100.00;99643.81;5027375;28;20077;-61
2021/12/29 09:30:05;;;;;;;33.78;14.60;;;;;;;4.85;100.00;99648.81;5022700;28;20054;-60
2021/12/29 09:32:32;;;;;;;30.73;15.32;;;;;;;4.89;100.00;99653.78;5028092;28;20422;-59
2021/12/29 09:35:00;;;;;;;28.55;13.85;;;;;;;4.94;100.00;99651.78;5017964;28;20038;-59
2021/12/29 09:37:30;;;;;;;34.40;14.68;;;;;;;5.02;100.00;99656.63;5020630;28;20412;-58
2021/12/29 09:39:58;;;;;;;27.55;15.50;;;;;;;5.02;100.00;99652.25;5024380;28;20103;-60
2021/12/29 09:42:25;;;;;;;27.52;15.27;;;;;;;5.01;100.00;99650.56;5029943;28;20559;-59
2021/12/29 09:44:52;;;;;;;32.97;14.95;;;;;;;5.07;100.00;99641.56;5027329;28;20129;-59
2021/12/29 09:47:20;;;;;;;29.48;15.85;;;;;;;5.13;100.00;99638.63;5011060;28;20054;-59
2021/12/29 09:49:47;;;;;;;27.85;15.15;;;;;;;5.22;100.00;99652.97;5013443;28;20073;-59
2021/12/29 09:52:14;;;;;;;26.20;14.10;;;;;;;5.30;100.00;99649.03;5007787;28;20060;-60
2021/12/29 09:54:41;;;;;;;32.80;15.13;;;;;;;5.29;100.00;99647.34;4994879;28;20391;-60
2021/12/29 09:57:09;;;;;;;27.17;14.23;;;;;;;5.27;100.00;99648.38;5020720;28;20137;-60
2021/12/29 09:59:36;;;;;;;27.30;15.07;;;;;;;5.27;100.00;99644.00;5019944;28;20645;-61
2021/12/29 10:02:08;;;;;;;30.75;14.80;;;;;;;5.29;100.00;99644.75;5008886;28;20057;-60
2021/12/29 10:04:37;;;;;;;27.30;14.25;;;;;;;5.32;100.00;99638.53;5015429;28;20426;-60
2021/12/29 10:07:19;;;;;;;29.45;14.13;;;;;;;5.31;100.00;99632.47;5026448;28;20057;-59
2021/12/29 10:09:46;;;;;;;27.65;14.30;;;;;;;5.36;100.00;99637.44;5016135;28;20065;-60
2021/12/29 10:12:19;;;;;;;22.70;14.10;;;;;;;5.37;100.00;99636.50;5018878;28;20244;-59
2021/12/29 10:14:57;;;;;;;25.95;14.68;;;;;;;5.41;100.00;99639.81;5015363;28;20081;-59
2021/12/29 10:17:32;;;;;;;28.90;14.73;;;;;;;5.40;100.00;99648.53;5018958;28;20057;-60
2021/12/29 10:20:06;;;;;;;31.73;15.43;;;;;;;5.39;100.00;99644.25;5018060;28;20084;-59
2021/12/29 10:22:34;;;;;;;27.58;14.93;;;;;;;5.37;100.00;99646.94;5024653;28;20132;-59
2021/12/29 10:25:31;;;;;;;23.48;13.48;;;;;;;5.38;100.00;99651.25;5015367;28;20475;-59
2021/12/29 10:28:00;;;;;;;39.70;14.60;;;;;;;5.38;100.00;99650.41;5016113;28;20064;-57
2021/12/29 10:30:30;;;;;;;25.85;14.55;;;;;;;5.53;100.00;99647.78;5021222;28;20134;-59
2021/12/29 10:33:09;;;;;;;28.52;14.32;;;;;;;5.55;100.00;99651.19;5024010;28;20140;-59
2021/12/29 10:35:36;;;;;;;28.35;14.70;;;;;;;5.77;100.00;99650.03;5023111;28;20108;-59
2021/12/29 10:38:19;;;;;;;32.58;15.27;;;;;;;5.65;100.00;99651.53;5028914;28;20065;-61
2021/12/29 10:40:46;;;;;;;31.10;16.30;;;;;;;5.65;100.00;99653.31;5023180;28;20059;-57
2021/12/29 10:43:14;;;;;;;34.47;17.55;;;;;;;5.62;100.00;99651.69;5016645;28;20053;-59
2021/12/29 10:45:43;;;;;;;25.88;16.85;;;;;;;5.63;100.00;99658.63;5025320;28;20494;-59
2021/12/29 10:48:24;;;;;;;36.15;17.15;;;;;;;5.63;100.00;99657.75;5007784;28;20073;-59
2021/12/29 10:51:00;;;;;;;29.30;16.00;;;;;;;5.70;100.00;99659.94;5021646;28;20057;-60
2021/12/29 10:53:29;;;;;;;30.42;16.55;;;;;;;5.65;100.00;99663.75;5019143;28;20571;-61
2021/12/29 10:55:56;;;;;;;31.67;17.02;;;;;;;5.60;100.00;99664.00;5018200;28;20054;-60
2021/12/29 10:58:26;;;;;;;37.30;19.35;;;;;;;5.57;100.00;99659.75;5014678;28;20053;-60
2021/12/29 11:01:13;;;;;;;36.20;16.92;;;;;;;5.56;100.00;99665.06;5021115;28;20533;-61
2021/12/29 11:04:08;;;;;;;35.63;18.88;;;;;;;5.61;100.00;99663.06;5021039;28;20391;-60
2021/12/29 11:06:39;;;;;;;36.28;18.70;;;;;;;5.57;100.00;99661.53;4996790;28;20059;-60
2021/12/29 11:09:06;;;;;;;33.97;17.73;;;;;;;5.57;100.00;99671.97;5021550;28;20111;-59
2021/12/29 11:11:36;;;;;;;35.88;18.27;;;;;;;5.49;100.00;99676.75;5017409;28;20046;-60
2021/12/29 11:14:14;;;;;;;39.47;18.25;;;;;;;5.45;100.00;99676.09;5024522;28;20057;-61
2021/12/29 11:16:42;;;;;;;39.67;19.80;;;;;;;5.43;100.00;99677.09;5006709;28;20458;-61
2021/12/29 11:19:09;;;;;;;34.67;18.42;;;;;;;5.40;100.00;99683.31;5024895;28;20137;-60
2021/12/29 11:21:41;;;;;;;43.08;20.05;;;;;;;5.39;100.00;99683.41;5019339;28;20126;-61
2021/12/29 11:24:25;;;;;;;36.53;18.92;;;;;;;5.36;100.00;99670.50;5023060;28;20049;-60
2021/12/29 11:26:52;;;;;;;38.80;18.58;;;;;;;5.41;100.00;99668.50;5018364;28;20471;-60